Terminal Aerodrome Forecast
Issued by NWS

Home | Current Version | Previous Version | Text Only | Print | Product List | Glossary On
Versions: 1 2 3 4 5 6 7 8 9 10 11 12 13 14 15
000
FTAK31 PAJN 242300
TAFAPG
TAF
PAPG 242333Z 2500/2524 06004KT P6SM FEW015 BKN030 OVC040
     FM250100 VRB04KT P6SM SCT025 SCT100
     FM250500 VRB03KT P6SM SCT010
     FM251100 VRB03KT P6SM VCFG OVC010
     FM251900 06005KT P6SM SCT020
      AMD LTD TO CLD VIS AND WIND 2506/2515=

USA.gov is the U.S. government's official web portal to all federal, state and local government web resources and services.